<?xml version="1.0" encoding="UTF-8" standalone="no" ?>
<gpx xmlns="http://www.topografix.com/GPX/1/1" xmlns:xsi="http://www.w3.org/2001/XMLSchema-instance" xsi:schemaLocation="http://www.topografix.com/GPX/1/1 http://www.topografix.com/GPX/1/1/gpx.xsd" version="1.1" creator="VisuGPX - https://www.visugpx.com">
  <metadata>
    <name>20: Lou Bentouse - la Matte</name>
    <desc><![CDATA[20: Lou Bentouse - la Matte]]></desc>
  </metadata>
  <wpt lat="43.83631" lon="3.12279">
    <ele>520</ele>
    <name><![CDATA[Accueil PdC Centre]]></name>
  </wpt>
  <wpt lat="43.83565" lon="3.12242">
    <ele>530.1</ele>
    <name><![CDATA[PCB]]></name>
  </wpt>
  <wpt lat="43.8336" lon="3.12054">
    <ele>555</ele>
    <name><![CDATA[RMA]]></name>
  </wpt>
  <wpt lat="43.8271" lon="3.1147">
    <ele>640.1</ele>
    <name><![CDATA[RMB]]></name>
  </wpt>
  <wpt lat="43.82642" lon="3.11401">
    <ele>655</ele>
    <name><![CDATA[RMY]]></name>
  </wpt>
  <wpt lat="43.82262" lon="3.11042">
    <ele>735.1</ele>
    <name><![CDATA[RMC]]></name>
  </wpt>
  <wpt lat="43.82091" lon="3.10845">
    <ele>719.9</ele>
    <name><![CDATA[PTE]]></name>
  </wpt>
  <wpt lat="43.81894" lon="3.11018">
    <ele>719.9</ele>
    <name><![CDATA[PTF]]></name>
  </wpt>
  <wpt lat="43.81838" lon="3.11333">
    <ele>735.1</ele>
    <name><![CDATA[PTG]]></name>
  </wpt>
  <wpt lat="43.81725" lon="3.11679">
    <ele>744.9</ele>
    <name><![CDATA[RDC]]></name>
  </wpt>
  <wpt lat="43.81643" lon="3.12033">
    <ele>735.1</ele>
    <name><![CDATA[PTH]]></name>
  </wpt>
  <wpt lat="43.81438" lon="3.12341">
    <ele>710.1</ele>
    <name><![CDATA[BMA]]></name>
  </wpt>
  <wpt lat="43.81349" lon="3.12465">
    <ele>665.1</ele>
    <name><![CDATA[BMB]]></name>
  </wpt>
  <wpt lat="43.81147" lon="3.12544">
    <ele>630</ele>
    <name><![CDATA[BMC]]></name>
  </wpt>
  <wpt lat="43.81022" lon="3.12735">
    <ele>614.9</ele>
    <name><![CDATA[BMD]]></name>
  </wpt>
  <wpt lat="43.80968" lon="3.12968">
    <ele>589.9</ele>
    <name><![CDATA[BME]]></name>
  </wpt>
  <wpt lat="43.80683" lon="3.12921">
    <ele>514.9</ele>
    <name><![CDATA[GRF]]></name>
  </wpt>
  <wpt lat="43.80799" lon="3.13807">
    <ele>495</ele>
    <name><![CDATA[BQR]]></name>
  </wpt>
  <wpt lat="43.80948" lon="3.14027">
    <ele>470</ele>
    <name><![CDATA[GRG]]></name>
  </wpt>
  <wpt lat="43.81125" lon="3.14208">
    <ele>480.1</ele>
    <name><![CDATA[GRH]]></name>
  </wpt>
  <wpt lat="43.81186" lon="3.1429">
    <ele>485.1</ele>
    <name><![CDATA[SVN]]></name>
  </wpt>
  <wpt lat="43.81244" lon="3.14506">
    <ele>470</ele>
    <name><![CDATA[SVE]]></name>
  </wpt>
  <wpt lat="43.8118" lon="3.14536">
    <ele>460.1</ele>
    <name><![CDATA[SVF]]></name>
  </wpt>
  <wpt lat="43.81383" lon="3.15076">
    <ele>460.1</ele>
    <name><![CDATA[EPC]]></name>
  </wpt>
  <wpt lat="43.82217" lon="3.14236">
    <ele>485.1</ele>
    <name><![CDATA[ABS]]></name>
  </wpt>
  <wpt lat="43.82249" lon="3.14372">
    <ele>480</ele>
    <name><![CDATA[ABG]]></name>
  </wpt>
  <wpt lat="43.82517" lon="3.13706">
    <ele>480.1</ele>
    <name><![CDATA[EAG]]></name>
  </wpt>
  <wpt lat="43.82985" lon="3.129">
    <ele>500</ele>
    <name><![CDATA[MSR]]></name>
  </wpt>
  <trk>
    <name><![CDATA[RoTr 20 PdC]]></name>
    <trkseg>
      <trkpt lat="43.83564" lon="3.12242">
        <ele>531</ele>
        <time>2010-01-01T00:00:00Z</time>
      </trkpt>
      <trkpt lat="43.83551" lon="3.12223">
        <ele>535</ele>
        <time>2010-01-01T00:00:31Z</time>
      </trkpt>
      <trkpt lat="43.83535" lon="3.12201">
        <ele>539</ele>
        <time>2010-01-01T00:01:09Z</time>
      </trkpt>
      <trkpt lat="43.83516" lon="3.12172">
        <ele>541</ele>
        <time>2010-01-01T00:01:56Z</time>
      </trkpt>
      <trkpt lat="43.83501" lon="3.12144">
        <ele>541</ele>
        <time>2010-01-01T00:02:39Z</time>
      </trkpt>
      <trkpt lat="43.83477" lon="3.12116">
        <ele>546</ele>
        <time>2010-01-01T00:03:31Z</time>
      </trkpt>
      <trkpt lat="43.8345" lon="3.12096">
        <ele>548</ele>
        <time>2010-01-01T00:04:22Z</time>
      </trkpt>
      <trkpt lat="43.83416" lon="3.12078">
        <ele>551</ele>
        <time>2010-01-01T00:05:24Z</time>
      </trkpt>
      <trkpt lat="43.83388" lon="3.12066">
        <ele>557</ele>
        <time>2010-01-01T00:06:13Z</time>
      </trkpt>
      <trkpt lat="43.83362" lon="3.12051">
        <ele>561</ele>
        <time>2010-01-01T00:06:59Z</time>
      </trkpt>
      <trkpt lat="43.83357" lon="3.12053">
        <ele>563</ele>
        <time>2010-01-01T00:07:09Z</time>
      </trkpt>
      <trkpt lat="43.8329" lon="3.12017">
        <ele>570</ele>
        <time>2010-01-01T00:09:08Z</time>
      </trkpt>
      <trkpt lat="43.83192" lon="3.1194">
        <ele>581</ele>
        <time>2010-01-01T00:12:17Z</time>
      </trkpt>
      <trkpt lat="43.83115" lon="3.11862">
        <ele>592</ele>
        <time>2010-01-01T00:14:56Z</time>
      </trkpt>
      <trkpt lat="43.83075" lon="3.11798">
        <ele>591</ele>
        <time>2010-01-01T00:16:39Z</time>
      </trkpt>
      <trkpt lat="43.83039" lon="3.11721">
        <ele>596</ele>
        <time>2010-01-01T00:18:30Z</time>
      </trkpt>
      <trkpt lat="43.83005" lon="3.11677">
        <ele>595</ele>
        <time>2010-01-01T00:19:47Z</time>
      </trkpt>
      <trkpt lat="43.82864" lon="3.11622">
        <ele>624</ele>
        <time>2010-01-01T00:23:52Z</time>
      </trkpt>
      <trkpt lat="43.82808" lon="3.1157">
        <ele>637</ele>
        <time>2010-01-01T00:25:45Z</time>
      </trkpt>
      <trkpt lat="43.82742" lon="3.11492">
        <ele>651</ele>
        <time>2010-01-01T00:28:10Z</time>
      </trkpt>
      <trkpt lat="43.82743" lon="3.11482">
        <ele>653</ele>
        <time>2010-01-01T00:28:23Z</time>
      </trkpt>
      <trkpt lat="43.82721" lon="3.11461">
        <ele>661</ele>
        <time>2010-01-01T00:29:08Z</time>
      </trkpt>
      <trkpt lat="43.82714" lon="3.11464">
        <ele>661</ele>
        <time>2010-01-01T00:29:20Z</time>
      </trkpt>
      <trkpt lat="43.82714" lon="3.11466">
        <ele>661</ele>
        <time>2010-01-01T00:29:23Z</time>
      </trkpt>
      <trkpt lat="43.82516" lon="3.11302">
        <ele>699</ele>
        <time>2010-01-01T00:35:49Z</time>
      </trkpt>
      <trkpt lat="43.82465" lon="3.11188">
        <ele>709</ele>
        <time>2010-01-01T00:38:31Z</time>
      </trkpt>
      <trkpt lat="43.82362" lon="3.11097">
        <ele>722</ele>
        <time>2010-01-01T00:41:56Z</time>
      </trkpt>
      <trkpt lat="43.82261" lon="3.11046">
        <ele>734</ele>
        <time>2010-01-01T00:44:56Z</time>
      </trkpt>
      <trkpt lat="43.82257" lon="3.11037">
        <ele>735</ele>
        <time>2010-01-01T00:45:09Z</time>
      </trkpt>
      <trkpt lat="43.82262" lon="3.11019">
        <ele>736</ele>
        <time>2010-01-01T00:45:31Z</time>
      </trkpt>
      <trkpt lat="43.82252" lon="3.1095">
        <ele>737</ele>
        <time>2010-01-01T00:46:56Z</time>
      </trkpt>
      <trkpt lat="43.82191" lon="3.10932">
        <ele>734</ele>
        <time>2010-01-01T00:48:40Z</time>
      </trkpt>
      <trkpt lat="43.82116" lon="3.10883">
        <ele>725</ele>
        <time>2010-01-01T00:50:59Z</time>
      </trkpt>
      <trkpt lat="43.82086" lon="3.10849">
        <ele>722</ele>
        <time>2010-01-01T00:52:05Z</time>
      </trkpt>
      <trkpt lat="43.82084" lon="3.10844">
        <ele>722</ele>
        <time>2010-01-01T00:52:11Z</time>
      </trkpt>
      <trkpt lat="43.82041" lon="3.10841">
        <ele>716</ele>
        <time>2010-01-01T00:53:23Z</time>
      </trkpt>
      <trkpt lat="43.82011" lon="3.10857">
        <ele>713</ele>
        <time>2010-01-01T00:54:16Z</time>
      </trkpt>
      <trkpt lat="43.81926" lon="3.10966">
        <ele>707</ele>
        <time>2010-01-01T00:57:31Z</time>
      </trkpt>
      <trkpt lat="43.81894" lon="3.11017">
        <ele>706</ele>
        <time>2010-01-01T00:58:52Z</time>
      </trkpt>
      <trkpt lat="43.81894" lon="3.11019">
        <ele>706</ele>
        <time>2010-01-01T00:58:55Z</time>
      </trkpt>
      <trkpt lat="43.81902" lon="3.11041">
        <ele>710</ele>
        <time>2010-01-01T00:59:24Z</time>
      </trkpt>
      <trkpt lat="43.81891" lon="3.11082">
        <ele>710</ele>
        <time>2010-01-01T01:00:17Z</time>
      </trkpt>
      <trkpt lat="43.81895" lon="3.11126">
        <ele>717</ele>
        <time>2010-01-01T01:01:10Z</time>
      </trkpt>
      <trkpt lat="43.81878" lon="3.1119">
        <ele>721</ele>
        <time>2010-01-01T01:02:32Z</time>
      </trkpt>
      <trkpt lat="43.81858" lon="3.11308">
        <ele>729</ele>
        <time>2010-01-01T01:04:59Z</time>
      </trkpt>
      <trkpt lat="43.8185" lon="3.11325">
        <ele>730</ele>
        <time>2010-01-01T01:05:24Z</time>
      </trkpt>
      <trkpt lat="43.8184" lon="3.11333">
        <ele>730</ele>
        <time>2010-01-01T01:05:43Z</time>
      </trkpt>
      <trkpt lat="43.81839" lon="3.11335">
        <ele>730</ele>
        <time>2010-01-01T01:05:46Z</time>
      </trkpt>
      <trkpt lat="43.81819" lon="3.11368">
        <ele>728</ele>
        <time>2010-01-01T01:06:38Z</time>
      </trkpt>
      <trkpt lat="43.81813" lon="3.11408">
        <ele>728</ele>
        <time>2010-01-01T01:07:27Z</time>
      </trkpt>
      <trkpt lat="43.81759" lon="3.11456">
        <ele>733</ele>
        <time>2010-01-01T01:09:14Z</time>
      </trkpt>
      <trkpt lat="43.81763" lon="3.11526">
        <ele>736</ele>
        <time>2010-01-01T01:10:39Z</time>
      </trkpt>
      <trkpt lat="43.81746" lon="3.11569">
        <ele>735</ele>
        <time>2010-01-01T01:11:38Z</time>
      </trkpt>
      <trkpt lat="43.81739" lon="3.11601">
        <ele>732</ele>
        <time>2010-01-01T01:12:18Z</time>
      </trkpt>
      <trkpt lat="43.81735" lon="3.11655">
        <ele>730</ele>
        <time>2010-01-01T01:13:24Z</time>
      </trkpt>
      <trkpt lat="43.8173" lon="3.11676">
        <ele>729</ele>
        <time>2010-01-01T01:13:50Z</time>
      </trkpt>
      <trkpt lat="43.81729" lon="3.11678">
        <ele>728</ele>
        <time>2010-01-01T01:13:54Z</time>
      </trkpt>
      <trkpt lat="43.81718" lon="3.1169">
        <ele>726</ele>
        <time>2010-01-01T01:14:17Z</time>
      </trkpt>
      <trkpt lat="43.8172" lon="3.11734">
        <ele>728</ele>
        <time>2010-01-01T01:15:10Z</time>
      </trkpt>
      <trkpt lat="43.81689" lon="3.11942">
        <ele>731</ele>
        <time>2010-01-01T01:19:27Z</time>
      </trkpt>
      <trkpt lat="43.81643" lon="3.12027">
        <ele>730</ele>
        <time>2010-01-01T01:21:36Z</time>
      </trkpt>
      <trkpt lat="43.8164" lon="3.12029">
        <ele>730</ele>
        <time>2010-01-01T01:21:40Z</time>
      </trkpt>
      <trkpt lat="43.81592" lon="3.12053">
        <ele>726</ele>
        <time>2010-01-01T01:23:06Z</time>
      </trkpt>
      <trkpt lat="43.81548" lon="3.12186">
        <ele>725</ele>
        <time>2010-01-01T01:26:03Z</time>
      </trkpt>
      <trkpt lat="43.81474" lon="3.1228">
        <ele>715</ele>
        <time>2010-01-01T01:28:52Z</time>
      </trkpt>
      <trkpt lat="43.81441" lon="3.12307">
        <ele>714</ele>
        <time>2010-01-01T01:29:57Z</time>
      </trkpt>
      <trkpt lat="43.81441" lon="3.1234">
        <ele>710</ele>
        <time>2010-01-01T01:30:36Z</time>
      </trkpt>
      <trkpt lat="43.81439" lon="3.12344">
        <ele>710</ele>
        <time>2010-01-01T01:30:41Z</time>
      </trkpt>
      <trkpt lat="43.81417" lon="3.12429">
        <ele>696</ele>
        <time>2010-01-01T01:32:31Z</time>
      </trkpt>
      <trkpt lat="43.81404" lon="3.1245">
        <ele>693</ele>
        <time>2010-01-01T01:33:05Z</time>
      </trkpt>
      <trkpt lat="43.81378" lon="3.12465">
        <ele>689</ele>
        <time>2010-01-01T01:33:51Z</time>
      </trkpt>
      <trkpt lat="43.81351" lon="3.12465">
        <ele>685</ele>
        <time>2010-01-01T01:34:36Z</time>
      </trkpt>
      <trkpt lat="43.81349" lon="3.12465">
        <ele>685</ele>
        <time>2010-01-01T01:34:40Z</time>
      </trkpt>
      <trkpt lat="43.81283" lon="3.12469">
        <ele>672</ele>
        <time>2010-01-01T01:36:31Z</time>
      </trkpt>
      <trkpt lat="43.81204" lon="3.12491">
        <ele>654</ele>
        <time>2010-01-01T01:38:46Z</time>
      </trkpt>
      <trkpt lat="43.8117" lon="3.12511">
        <ele>647</ele>
        <time>2010-01-01T01:39:47Z</time>
      </trkpt>
      <trkpt lat="43.81149" lon="3.1255">
        <ele>636</ele>
        <time>2010-01-01T01:40:47Z</time>
      </trkpt>
      <trkpt lat="43.81148" lon="3.12554">
        <ele>636</ele>
        <time>2010-01-01T01:40:51Z</time>
      </trkpt>
      <trkpt lat="43.81109" lon="3.1264">
        <ele>625</ele>
        <time>2010-01-01T01:42:54Z</time>
      </trkpt>
      <trkpt lat="43.81085" lon="3.12669">
        <ele>616</ele>
        <time>2010-01-01T01:43:48Z</time>
      </trkpt>
      <trkpt lat="43.81039" lon="3.12721">
        <ele>606</ele>
        <time>2010-01-01T01:45:27Z</time>
      </trkpt>
      <trkpt lat="43.81018" lon="3.12775">
        <ele>602</ele>
        <time>2010-01-01T01:46:41Z</time>
      </trkpt>
      <trkpt lat="43.81016" lon="3.12777">
        <ele>601</ele>
        <time>2010-01-01T01:46:44Z</time>
      </trkpt>
      <trkpt lat="43.81015" lon="3.12822">
        <ele>607</ele>
        <time>2010-01-01T01:47:39Z</time>
      </trkpt>
      <trkpt lat="43.81003" lon="3.12902">
        <ele>606</ele>
        <time>2010-01-01T01:49:18Z</time>
      </trkpt>
      <trkpt lat="43.80975" lon="3.12966">
        <ele>594</ele>
        <time>2010-01-01T01:50:48Z</time>
      </trkpt>
      <trkpt lat="43.80976" lon="3.12967">
        <ele>594</ele>
        <time>2010-01-01T01:50:50Z</time>
      </trkpt>
      <trkpt lat="43.80958" lon="3.12966">
        <ele>586</ele>
        <time>2010-01-01T01:51:20Z</time>
      </trkpt>
      <trkpt lat="43.80914" lon="3.12935">
        <ele>565</ele>
        <time>2010-01-01T01:52:43Z</time>
      </trkpt>
      <trkpt lat="43.80897" lon="3.12942">
        <ele>561</ele>
        <time>2010-01-01T01:53:13Z</time>
      </trkpt>
      <trkpt lat="43.80886" lon="3.12927">
        <ele>557</ele>
        <time>2010-01-01T01:53:39Z</time>
      </trkpt>
      <trkpt lat="43.80872" lon="3.12922">
        <ele>553</ele>
        <time>2010-01-01T01:54:03Z</time>
      </trkpt>
      <trkpt lat="43.80863" lon="3.12909">
        <ele>550</ele>
        <time>2010-01-01T01:54:24Z</time>
      </trkpt>
      <trkpt lat="43.80793" lon="3.12921">
        <ele>535</ele>
        <time>2010-01-01T01:56:22Z</time>
      </trkpt>
      <trkpt lat="43.80727" lon="3.12912">
        <ele>522</ele>
        <time>2010-01-01T01:58:14Z</time>
      </trkpt>
      <trkpt lat="43.80685" lon="3.12917">
        <ele>517</ele>
        <time>2010-01-01T01:59:25Z</time>
      </trkpt>
      <trkpt lat="43.80684" lon="3.12919">
        <ele>517</ele>
        <time>2010-01-01T01:59:28Z</time>
      </trkpt>
      <trkpt lat="43.80679" lon="3.1301">
        <ele>516</ele>
        <time>2010-01-01T02:01:18Z</time>
      </trkpt>
      <trkpt lat="43.80712" lon="3.13069">
        <ele>522</ele>
        <time>2010-01-01T02:02:48Z</time>
      </trkpt>
      <trkpt lat="43.80715" lon="3.13107">
        <ele>522</ele>
        <time>2010-01-01T02:03:34Z</time>
      </trkpt>
      <trkpt lat="43.80686" lon="3.13185">
        <ele>511</ele>
        <time>2010-01-01T02:05:20Z</time>
      </trkpt>
      <trkpt lat="43.80685" lon="3.13233">
        <ele>508</ele>
        <time>2010-01-01T02:06:18Z</time>
      </trkpt>
      <trkpt lat="43.80709" lon="3.13307">
        <ele>506</ele>
        <time>2010-01-01T02:07:56Z</time>
      </trkpt>
      <trkpt lat="43.80712" lon="3.13447">
        <ele>502</ele>
        <time>2010-01-01T02:10:45Z</time>
      </trkpt>
      <trkpt lat="43.80739" lon="3.13505">
        <ele>505</ele>
        <time>2010-01-01T02:12:10Z</time>
      </trkpt>
      <trkpt lat="43.80761" lon="3.13593">
        <ele>503</ele>
        <time>2010-01-01T02:14:02Z</time>
      </trkpt>
      <trkpt lat="43.80796" lon="3.13658">
        <ele>501</ele>
        <time>2010-01-01T02:15:40Z</time>
      </trkpt>
      <trkpt lat="43.8081" lon="3.13695">
        <ele>499</ele>
        <time>2010-01-01T02:16:30Z</time>
      </trkpt>
      <trkpt lat="43.8081" lon="3.13736">
        <ele>496</ele>
        <time>2010-01-01T02:17:20Z</time>
      </trkpt>
      <trkpt lat="43.80806" lon="3.13765">
        <ele>493</ele>
        <time>2010-01-01T02:17:55Z</time>
      </trkpt>
      <trkpt lat="43.80797" lon="3.13801">
        <ele>489</ele>
        <time>2010-01-01T02:18:41Z</time>
      </trkpt>
      <trkpt lat="43.80797" lon="3.13802">
        <ele>489</ele>
        <time>2010-01-01T02:18:42Z</time>
      </trkpt>
      <trkpt lat="43.80838" lon="3.13832">
        <ele>487</ele>
        <time>2010-01-01T02:20:01Z</time>
      </trkpt>
      <trkpt lat="43.80891" lon="3.13946">
        <ele>479</ele>
        <time>2010-01-01T02:22:45Z</time>
      </trkpt>
      <trkpt lat="43.80945" lon="3.14016">
        <ele>474</ele>
        <time>2010-01-01T02:24:49Z</time>
      </trkpt>
      <trkpt lat="43.80948" lon="3.14017">
        <ele>474</ele>
        <time>2010-01-01T02:24:54Z</time>
      </trkpt>
      <trkpt lat="43.80953" lon="3.14028">
        <ele>473</ele>
        <time>2010-01-01T02:25:09Z</time>
      </trkpt>
      <trkpt lat="43.81004" lon="3.14045">
        <ele>479</ele>
        <time>2010-01-01T02:26:38Z</time>
      </trkpt>
      <trkpt lat="43.81041" lon="3.14024">
        <ele>493</ele>
        <time>2010-01-01T02:27:44Z</time>
      </trkpt>
      <trkpt lat="43.81079" lon="3.14035">
        <ele>500</ele>
        <time>2010-01-01T02:28:49Z</time>
      </trkpt>
      <trkpt lat="43.81109" lon="3.14058">
        <ele>499</ele>
        <time>2010-01-01T02:29:47Z</time>
      </trkpt>
      <trkpt lat="43.81125" lon="3.14061">
        <ele>501</ele>
        <time>2010-01-01T02:30:14Z</time>
      </trkpt>
      <trkpt lat="43.81124" lon="3.14207">
        <ele>484</ele>
        <time>2010-01-01T02:33:11Z</time>
      </trkpt>
      <trkpt lat="43.81127" lon="3.14205">
        <ele>484</ele>
        <time>2010-01-01T02:33:16Z</time>
      </trkpt>
      <trkpt lat="43.81151" lon="3.14234">
        <ele>487</ele>
        <time>2010-01-01T02:34:10Z</time>
      </trkpt>
      <trkpt lat="43.8116" lon="3.14221">
        <ele>489</ele>
        <time>2010-01-01T02:34:31Z</time>
      </trkpt>
      <trkpt lat="43.81167" lon="3.14225">
        <ele>490</ele>
        <time>2010-01-01T02:34:43Z</time>
      </trkpt>
      <trkpt lat="43.81187" lon="3.14285">
        <ele>493</ele>
        <time>2010-01-01T02:36:03Z</time>
      </trkpt>
      <trkpt lat="43.81188" lon="3.1429">
        <ele>494</ele>
        <time>2010-01-01T02:36:09Z</time>
      </trkpt>
      <trkpt lat="43.81198" lon="3.14328">
        <ele>494</ele>
        <time>2010-01-01T02:36:58Z</time>
      </trkpt>
      <trkpt lat="43.81217" lon="3.14419">
        <ele>487</ele>
        <time>2010-01-01T02:38:52Z</time>
      </trkpt>
      <trkpt lat="43.81227" lon="3.14443">
        <ele>486</ele>
        <time>2010-01-01T02:39:25Z</time>
      </trkpt>
      <trkpt lat="43.81249" lon="3.1449">
        <ele>484</ele>
        <time>2010-01-01T02:40:33Z</time>
      </trkpt>
      <trkpt lat="43.81245" lon="3.14503">
        <ele>481</ele>
        <time>2010-01-01T02:40:50Z</time>
      </trkpt>
      <trkpt lat="43.81243" lon="3.14503">
        <ele>480</ele>
        <time>2010-01-01T02:40:53Z</time>
      </trkpt>
      <trkpt lat="43.81236" lon="3.145">
        <ele>479</ele>
        <time>2010-01-01T02:41:05Z</time>
      </trkpt>
      <trkpt lat="43.81226" lon="3.14484">
        <ele>479</ele>
        <time>2010-01-01T02:41:32Z</time>
      </trkpt>
      <trkpt lat="43.81218" lon="3.14487">
        <ele>477</ele>
        <time>2010-01-01T02:41:45Z</time>
      </trkpt>
      <trkpt lat="43.81211" lon="3.14505">
        <ele>473</ele>
        <time>2010-01-01T02:42:10Z</time>
      </trkpt>
      <trkpt lat="43.81202" lon="3.14522">
        <ele>470</ele>
        <time>2010-01-01T02:42:37Z</time>
      </trkpt>
      <trkpt lat="43.8118" lon="3.14531">
        <ele>465</ele>
        <time>2010-01-01T02:43:14Z</time>
      </trkpt>
      <trkpt lat="43.8118" lon="3.14533">
        <ele>465</ele>
        <time>2010-01-01T02:43:17Z</time>
      </trkpt>
      <trkpt lat="43.81195" lon="3.14601">
        <ele>465</ele>
        <time>2010-01-01T02:44:42Z</time>
      </trkpt>
      <trkpt lat="43.81284" lon="3.14834">
        <ele>473</ele>
        <time>2010-01-01T02:50:02Z</time>
      </trkpt>
      <trkpt lat="43.81307" lon="3.14898">
        <ele>473</ele>
        <time>2010-01-01T02:51:28Z</time>
      </trkpt>
      <trkpt lat="43.81334" lon="3.14996">
        <ele>466</ele>
        <time>2010-01-01T02:53:34Z</time>
      </trkpt>
      <trkpt lat="43.81377" lon="3.15063">
        <ele>465</ele>
        <time>2010-01-01T02:55:23Z</time>
      </trkpt>
      <trkpt lat="43.81381" lon="3.15074">
        <ele>464</ele>
        <time>2010-01-01T02:55:38Z</time>
      </trkpt>
      <trkpt lat="43.81382" lon="3.15076">
        <ele>464</ele>
        <time>2010-01-01T02:55:41Z</time>
      </trkpt>
      <trkpt lat="43.81405" lon="3.15095">
        <ele>463</ele>
        <time>2010-01-01T02:56:26Z</time>
      </trkpt>
      <trkpt lat="43.81411" lon="3.15099">
        <ele>463</ele>
        <time>2010-01-01T02:56:37Z</time>
      </trkpt>
      <trkpt lat="43.81421" lon="3.15098">
        <ele>463</ele>
        <time>2010-01-01T02:56:53Z</time>
      </trkpt>
      <trkpt lat="43.8146" lon="3.15092">
        <ele>464</ele>
        <time>2010-01-01T02:57:59Z</time>
      </trkpt>
      <trkpt lat="43.81482" lon="3.15094">
        <ele>464</ele>
        <time>2010-01-01T02:58:37Z</time>
      </trkpt>
      <trkpt lat="43.81502" lon="3.15092">
        <ele>464</ele>
        <time>2010-01-01T02:59:10Z</time>
      </trkpt>
      <trkpt lat="43.81519" lon="3.15084">
        <ele>464</ele>
        <time>2010-01-01T02:59:40Z</time>
      </trkpt>
      <trkpt lat="43.81534" lon="3.15069">
        <ele>465</ele>
        <time>2010-01-01T03:00:11Z</time>
      </trkpt>
      <trkpt lat="43.81547" lon="3.15052">
        <ele>467</ele>
        <time>2010-01-01T03:00:41Z</time>
      </trkpt>
      <trkpt lat="43.8157" lon="3.1501">
        <ele>469</ele>
        <time>2010-01-01T03:01:44Z</time>
      </trkpt>
      <trkpt lat="43.81597" lon="3.14965">
        <ele>474</ele>
        <time>2010-01-01T03:02:56Z</time>
      </trkpt>
      <trkpt lat="43.8166" lon="3.14898">
        <ele>477</ele>
        <time>2010-01-01T03:05:09Z</time>
      </trkpt>
      <trkpt lat="43.81724" lon="3.14832">
        <ele>477</ele>
        <time>2010-01-01T03:07:22Z</time>
      </trkpt>
      <trkpt lat="43.81817" lon="3.14727">
        <ele>479</ele>
        <time>2010-01-01T03:10:42Z</time>
      </trkpt>
      <trkpt lat="43.81837" lon="3.14701">
        <ele>480</ele>
        <time>2010-01-01T03:11:29Z</time>
      </trkpt>
      <trkpt lat="43.81863" lon="3.14659">
        <ele>484</ele>
        <time>2010-01-01T03:12:36Z</time>
      </trkpt>
      <trkpt lat="43.8188" lon="3.14624">
        <ele>487</ele>
        <time>2010-01-01T03:13:27Z</time>
      </trkpt>
      <trkpt lat="43.81897" lon="3.14579">
        <ele>488</ele>
        <time>2010-01-01T03:14:28Z</time>
      </trkpt>
      <trkpt lat="43.81913" lon="3.14555">
        <ele>485</ele>
        <time>2010-01-01T03:15:08Z</time>
      </trkpt>
      <trkpt lat="43.81941" lon="3.14531">
        <ele>484</ele>
        <time>2010-01-01T03:16:03Z</time>
      </trkpt>
      <trkpt lat="43.81971" lon="3.14504">
        <ele>483</ele>
        <time>2010-01-01T03:17:02Z</time>
      </trkpt>
      <trkpt lat="43.82053" lon="3.14424">
        <ele>484</ele>
        <time>2010-01-01T03:19:50Z</time>
      </trkpt>
      <trkpt lat="43.82137" lon="3.14339">
        <ele>489</ele>
        <time>2010-01-01T03:22:45Z</time>
      </trkpt>
      <trkpt lat="43.82164" lon="3.1431">
        <ele>488</ele>
        <time>2010-01-01T03:23:42Z</time>
      </trkpt>
      <trkpt lat="43.82181" lon="3.14288">
        <ele>488</ele>
        <time>2010-01-01T03:24:21Z</time>
      </trkpt>
      <trkpt lat="43.82202" lon="3.14259">
        <ele>490</ele>
        <time>2010-01-01T03:25:11Z</time>
      </trkpt>
      <trkpt lat="43.82215" lon="3.14235">
        <ele>493</ele>
        <time>2010-01-01T03:25:47Z</time>
      </trkpt>
      <trkpt lat="43.82217" lon="3.14236">
        <ele>493</ele>
        <time>2010-01-01T03:25:49Z</time>
      </trkpt>
      <trkpt lat="43.82235" lon="3.14265">
        <ele>487</ele>
        <time>2010-01-01T03:26:36Z</time>
      </trkpt>
      <trkpt lat="43.82236" lon="3.14286">
        <ele>484</ele>
        <time>2010-01-01T03:27:01Z</time>
      </trkpt>
      <trkpt lat="43.82228" lon="3.14348">
        <ele>479</ele>
        <time>2010-01-01T03:28:17Z</time>
      </trkpt>
      <trkpt lat="43.82231" lon="3.14357">
        <ele>479</ele>
        <time>2010-01-01T03:28:29Z</time>
      </trkpt>
      <trkpt lat="43.8225" lon="3.14369">
        <ele>478</ele>
        <time>2010-01-01T03:29:03Z</time>
      </trkpt>
      <trkpt lat="43.82252" lon="3.14372">
        <ele>478</ele>
        <time>2010-01-01T03:29:08Z</time>
      </trkpt>
      <trkpt lat="43.82256" lon="3.14375">
        <ele>478</ele>
        <time>2010-01-01T03:29:15Z</time>
      </trkpt>
      <trkpt lat="43.8226" lon="3.14376">
        <ele>478</ele>
        <time>2010-01-01T03:29:23Z</time>
      </trkpt>
      <trkpt lat="43.82287" lon="3.14355">
        <ele>479</ele>
        <time>2010-01-01T03:30:15Z</time>
      </trkpt>
      <trkpt lat="43.82326" lon="3.1435">
        <ele>480</ele>
        <time>2010-01-01T03:31:20Z</time>
      </trkpt>
      <trkpt lat="43.82343" lon="3.14344">
        <ele>480</ele>
        <time>2010-01-01T03:31:49Z</time>
      </trkpt>
      <trkpt lat="43.82353" lon="3.14332">
        <ele>480</ele>
        <time>2010-01-01T03:32:12Z</time>
      </trkpt>
      <trkpt lat="43.8238" lon="3.14266">
        <ele>480</ele>
        <time>2010-01-01T03:33:42Z</time>
      </trkpt>
      <trkpt lat="43.82406" lon="3.14212">
        <ele>482</ele>
        <time>2010-01-01T03:35:01Z</time>
      </trkpt>
      <trkpt lat="43.82456" lon="3.14132">
        <ele>487</ele>
        <time>2010-01-01T03:37:09Z</time>
      </trkpt>
      <trkpt lat="43.82474" lon="3.1405">
        <ele>491</ele>
        <time>2010-01-01T03:38:52Z</time>
      </trkpt>
      <trkpt lat="43.82486" lon="3.13937">
        <ele>493</ele>
        <time>2010-01-01T03:41:11Z</time>
      </trkpt>
      <trkpt lat="43.82501" lon="3.13881">
        <ele>489</ele>
        <time>2010-01-01T03:42:22Z</time>
      </trkpt>
      <trkpt lat="43.82513" lon="3.13766">
        <ele>493</ele>
        <time>2010-01-01T03:44:43Z</time>
      </trkpt>
      <trkpt lat="43.82522" lon="3.13718">
        <ele>495</ele>
        <time>2010-01-01T03:45:43Z</time>
      </trkpt>
      <trkpt lat="43.82516" lon="3.13706">
        <ele>495</ele>
        <time>2010-01-01T03:46:01Z</time>
      </trkpt>
      <trkpt lat="43.82515" lon="3.13704">
        <ele>495</ele>
        <time>2010-01-01T03:46:04Z</time>
      </trkpt>
      <trkpt lat="43.82514" lon="3.13698">
        <ele>495</ele>
        <time>2010-01-01T03:46:11Z</time>
      </trkpt>
      <trkpt lat="43.82523" lon="3.13653">
        <ele>497</ele>
        <time>2010-01-01T03:47:08Z</time>
      </trkpt>
      <trkpt lat="43.82532" lon="3.13598">
        <ele>498</ele>
        <time>2010-01-01T03:48:16Z</time>
      </trkpt>
      <trkpt lat="43.82546" lon="3.13548">
        <ele>502</ele>
        <time>2010-01-01T03:49:21Z</time>
      </trkpt>
      <trkpt lat="43.8257" lon="3.13508">
        <ele>502</ele>
        <time>2010-01-01T03:50:24Z</time>
      </trkpt>
      <trkpt lat="43.82594" lon="3.1346">
        <ele>508</ele>
        <time>2010-01-01T03:51:34Z</time>
      </trkpt>
      <trkpt lat="43.82641" lon="3.13386">
        <ele>511</ele>
        <time>2010-01-01T03:53:33Z</time>
      </trkpt>
      <trkpt lat="43.82692" lon="3.13316">
        <ele>513</ele>
        <time>2010-01-01T03:55:33Z</time>
      </trkpt>
      <trkpt lat="43.82746" lon="3.13267">
        <ele>508</ele>
        <time>2010-01-01T03:57:21Z</time>
      </trkpt>
      <trkpt lat="43.82766" lon="3.13246">
        <ele>509</ele>
        <time>2010-01-01T03:58:04Z</time>
      </trkpt>
      <trkpt lat="43.8279" lon="3.13202">
        <ele>512</ele>
        <time>2010-01-01T03:59:10Z</time>
      </trkpt>
      <trkpt lat="43.82827" lon="3.13139">
        <ele>506</ele>
        <time>2010-01-01T04:00:48Z</time>
      </trkpt>
      <trkpt lat="43.82842" lon="3.13091">
        <ele>508</ele>
        <time>2010-01-01T04:01:51Z</time>
      </trkpt>
      <trkpt lat="43.82866" lon="3.13058">
        <ele>512</ele>
        <time>2010-01-01T04:02:49Z</time>
      </trkpt>
      <trkpt lat="43.82881" lon="3.13021">
        <ele>517</ele>
        <time>2010-01-01T04:03:40Z</time>
      </trkpt>
      <trkpt lat="43.82896" lon="3.12993">
        <ele>517</ele>
        <time>2010-01-01T04:04:22Z</time>
      </trkpt>
      <trkpt lat="43.82957" lon="3.12922">
        <ele>515</ele>
        <time>2010-01-01T04:06:35Z</time>
      </trkpt>
      <trkpt lat="43.82982" lon="3.12902">
        <ele>511</ele>
        <time>2010-01-01T04:07:23Z</time>
      </trkpt>
      <trkpt lat="43.82985" lon="3.12901">
        <ele>510</ele>
        <time>2010-01-01T04:07:28Z</time>
      </trkpt>
      <trkpt lat="43.82997" lon="3.12907">
        <ele>506</ele>
        <time>2010-01-01T04:07:50Z</time>
      </trkpt>
      <trkpt lat="43.83043" lon="3.12912">
        <ele>506</ele>
        <time>2010-01-01T04:09:07Z</time>
      </trkpt>
      <trkpt lat="43.83069" lon="3.12914">
        <ele>506</ele>
        <time>2010-01-01T04:09:50Z</time>
      </trkpt>
      <trkpt lat="43.83085" lon="3.12908">
        <ele>510</ele>
        <time>2010-01-01T04:10:18Z</time>
      </trkpt>
      <trkpt lat="43.83152" lon="3.12863">
        <ele>522</ele>
        <time>2010-01-01T04:12:23Z</time>
      </trkpt>
      <trkpt lat="43.83194" lon="3.12825">
        <ele>525</ele>
        <time>2010-01-01T04:13:46Z</time>
      </trkpt>
      <trkpt lat="43.83228" lon="3.12782">
        <ele>529</ele>
        <time>2010-01-01T04:15:04Z</time>
      </trkpt>
      <trkpt lat="43.83255" lon="3.12758">
        <ele>526</ele>
        <time>2010-01-01T04:15:57Z</time>
      </trkpt>
      <trkpt lat="43.83287" lon="3.12722">
        <ele>530</ele>
        <time>2010-01-01T04:17:07Z</time>
      </trkpt>
      <trkpt lat="43.83375" lon="3.12594">
        <ele>534</ele>
        <time>2010-01-01T04:20:41Z</time>
      </trkpt>
      <trkpt lat="43.83447" lon="3.12485">
        <ele>534</ele>
        <time>2010-01-01T04:23:40Z</time>
      </trkpt>
      <trkpt lat="43.83472" lon="3.1245">
        <ele>533</ele>
        <time>2010-01-01T04:24:38Z</time>
      </trkpt>
      <trkpt lat="43.83501" lon="3.12398">
        <ele>532</ele>
        <time>2010-01-01T04:25:58Z</time>
      </trkpt>
      <trkpt lat="43.83518" lon="3.12355">
        <ele>538</ele>
        <time>2010-01-01T04:26:58Z</time>
      </trkpt>
      <trkpt lat="43.83565" lon="3.12282">
        <ele>528</ele>
        <time>2010-01-01T04:28:55Z</time>
      </trkpt>
      <trkpt lat="43.83566" lon="3.12265">
        <ele>529</ele>
        <time>2010-01-01T04:29:16Z</time>
      </trkpt>
      <trkpt lat="43.83563" lon="3.12249">
        <ele>531</ele>
        <time>2010-01-01T04:29:36Z</time>
      </trkpt>
      <trkpt lat="43.83565" lon="3.12242">
        <ele>530</ele>
        <time>2010-01-01T04:29:44Z</time>
      </trkpt>
    </trkseg>
  </trk>
</gpx>